Terminal Aerodrome Forecast
Issued by NWS

Home | Current Version | Previous Version | Text Only | Print | Product List | Glossary On
Versions: 1 2 3 4 5 6 7 8 9 10 11 12 13 14 15 16 17 18 19 20
000
FTUS43 KBIS 131100
TAFJMS
TAF
KJMS 131120Z 1312/1412 30006KT P6SM FEW045
     FM131400 31016KT P6SM SKC
     FM131700 32020G30KT P6SM SKC
     FM132100 32021G30KT P6SM SCT060
     FM140300 34009KT P6SM SCT045 BKN060=

USA.gov is the U.S. government's official web portal to all federal, state and local government web resources and services.